Main page
METAR-TAF:

METAR-TAF

Airports :

Pori Airport

Pori, Finland

latitude: 61-28N, longitude: 021-48E, elevation: 13 m

Current weather observation

The report was made 23 minutes ago, at 21:50 UTC
Wind 18 kt from the South/Southwest, varying between South and West/Southwest
Temperature 6°C
Humidity 70%
Pressure 980 hPa
Visibility 10 km or more
Overcast at a height of 3800 ft

METAR: EFPO 172150Z AUTO 21018KT 180V250 9999 OVC038 06/01 Q0980

Time: 00:13 (22:13 UTC)

Forecast

The report was made 1 hour and 45 minutes ago, at 20:28 UTC
Forecast valid from 17 at 21 UTC to 17 at 23 UTC
Wind 18 kt from the Southwest with gusts up to 30 kt
Visibility 10 km or more
Broken clouds at a height of 2500 ft

TAF: EFPO 172028Z 1721/1723 22018G30KT 9999 BKN025

Weather observations and forecasts of more than 4000 airports (METAR and TAF reports).

The available stations are represented by yellow and red dots on the map.

Hover mouse over dot to see the name of the station.

Then click to see weather observations and forecasts.

To change the map : click on the green buttons with a black cross to zoom in, on the green button with a dash to zoom out, or on the green arrows for adjacent maps.


METAR-TAF: